createdAt,value
2022-09-29T00:00:39.648Z,1.80
2022-09-29T00:03:07.933Z,2.10
2022-09-29T00:05:36.230Z,1.80
2022-09-29T00:08:04.486Z,1.80
2022-09-29T00:10:32.502Z,1.60
2022-09-29T00:13:00.423Z,2.00
2022-09-29T00:15:28.515Z,2.00
2022-09-29T00:18:13.321Z,1.70
2022-09-29T00:20:42.110Z,1.90
2022-09-29T00:23:10.051Z,2.10
2022-09-29T00:25:38.012Z,2.50
2022-09-29T00:28:05.914Z,1.90
2022-09-29T00:30:33.871Z,1.70
2022-09-29T00:33:01.837Z,1.80
2022-09-29T00:35:29.823Z,1.80
2022-09-29T00:37:58.399Z,2.20
2022-09-29T00:40:26.765Z,1.60
2022-09-29T00:42:54.936Z,1.50
2022-09-29T00:45:24.597Z,1.60
2022-09-29T00:48:02.867Z,1.50
2022-09-29T00:50:40.479Z,1.90
2022-09-29T00:53:11.860Z,1.50
2022-09-29T00:55:44.079Z,1.90
2022-09-29T00:58:22.517Z,1.70
2022-09-29T01:00:50.635Z,1.70
2022-09-29T01:03:22.156Z,1.60
2022-09-29T01:05:57.379Z,1.80
2022-09-29T01:08:28.027Z,1.50
2022-09-29T01:11:00.676Z,2.10
2022-09-29T01:13:30.174Z,1.50
2022-09-29T01:15:58.127Z,1.60
2022-09-29T01:18:26.914Z,1.60
2022-09-29T01:21:10.444Z,1.50
2022-09-29T01:24:24.722Z,1.50
2022-09-29T01:27:07.354Z,1.80
2022-09-29T01:30:02.243Z,1.70
2022-09-29T01:32:40.684Z,1.50
2022-09-29T01:35:16.090Z,1.70
2022-09-29T01:37:58.132Z,1.60
2022-09-29T01:40:34.538Z,1.80
2022-09-29T01:43:08.320Z,2.20
2022-09-29T01:45:42.414Z,1.50
2022-09-29T01:48:18.329Z,1.30
2022-09-29T01:50:50.102Z,1.70
2022-09-29T01:53:22.871Z,1.80
2022-09-29T01:55:53.888Z,1.50
2022-09-29T01:58:27.581Z,1.60
2022-09-29T02:03:30.198Z,1.50
2022-09-29T02:06:01.538Z,1.30
2022-09-29T02:08:34.301Z,1.50
2022-09-29T02:11:04.378Z,1.60
2022-09-29T02:13:36.481Z,1.40
2022-09-29T02:16:05.824Z,1.80
2022-09-29T02:18:40.892Z,1.70
2022-09-29T02:21:10.055Z,1.50
2022-09-29T02:23:37.950Z,1.40
2022-09-29T02:26:06.810Z,1.30
2022-09-29T02:28:35.042Z,1.40
2022-09-29T02:31:04.518Z,1.60
2022-09-29T02:33:32.881Z,1.40
2022-09-29T02:36:15.919Z,1.50
2022-09-29T02:38:52.832Z,1.30
2022-09-29T02:41:34.242Z,1.00
2022-09-29T02:44:21.323Z,1.60
2022-09-29T02:47:05.881Z,1.30
2022-09-29T02:49:49.996Z,1.30
2022-09-29T02:52:28.019Z,1.40
2022-09-29T02:55:05.824Z,1.30
2022-09-29T02:57:41.447Z,1.50
2022-09-29T03:00:13.284Z,1.50
2022-09-29T03:02:43.418Z,1.20
2022-09-29T03:05:14.054Z,1.30
2022-09-29T03:07:42.763Z,1.30
2022-09-29T03:10:13.845Z,1.20
2022-09-29T03:12:42.334Z,1.30
2022-09-29T03:15:12.652Z,1.20
2022-09-29T03:17:41.053Z,1.00
2022-09-29T03:20:10.543Z,1.10
2022-09-29T03:22:38.707Z,1.20
2022-09-29T03:25:08.244Z,1.30
2022-09-29T03:27:37.693Z,0.90
2022-09-29T03:30:08.477Z,1.20
2022-09-29T03:32:36.490Z,1.20
2022-09-29T03:35:06.776Z,1.10
2022-09-29T03:37:34.721Z,1.30
2022-09-29T03:40:03.395Z,1.50
2022-09-29T03:42:32.260Z,1.30
2022-09-29T03:45:00.245Z,1.80
2022-09-29T03:47:28.233Z,1.40
2022-09-29T03:49:56.154Z,1.50
2022-09-29T03:52:24.338Z,1.40
2022-09-29T03:54:52.531Z,1.50
2022-09-29T03:57:20.522Z,1.40
2022-09-29T03:59:48.546Z,1.30
2022-09-29T04:02:19.162Z,1.10
2022-09-29T04:04:47.394Z,1.00
2022-09-29T04:07:15.385Z,1.20
2022-09-29T04:09:43.362Z,1.20
2022-09-29T04:12:11.435Z,1.40
2022-09-29T04:14:39.661Z,2.40
2022-09-29T04:17:07.539Z,2.20
2022-09-29T04:19:35.440Z,2.20
2022-09-29T04:22:03.394Z,2.60
2022-09-29T04:24:31.737Z,2.00
2022-09-29T04:27:00.113Z,2.20
2022-09-29T04:29:28.400Z,2.60
2022-09-29T04:31:56.526Z,2.50
2022-09-29T04:34:24.695Z,2.50
2022-09-29T04:36:53.500Z,2.60
2022-09-29T04:39:22.128Z,2.30
2022-09-29T04:41:50.210Z,2.50
2022-09-29T04:44:19.646Z,2.00
2022-09-29T04:46:49.114Z,2.00
2022-09-29T04:49:17.133Z,2.20
2022-09-29T04:51:45.425Z,1.80
2022-09-29T04:54:13.559Z,1.90
2022-09-29T04:56:41.600Z,2.10
2022-09-29T04:59:10.400Z,2.20
2022-09-29T05:01:38.359Z,1.80
2022-09-29T05:04:07.094Z,2.00
2022-09-29T05:06:38.715Z,1.60
2022-09-29T05:09:07.163Z,1.60
2022-09-29T05:11:35.359Z,1.80
2022-09-29T05:14:03.318Z,1.60
2022-09-29T05:16:31.753Z,1.80
2022-09-29T05:18:59.877Z,1.80
2022-09-29T05:21:29.269Z,1.40
2022-09-29T05:23:58.055Z,1.90
2022-09-29T05:26:26.653Z,1.90
2022-09-29T05:28:54.723Z,1.60
2022-09-29T05:31:22.761Z,1.60
2022-09-29T05:33:51.457Z,1.60
2022-09-29T05:36:19.493Z,1.70
2022-09-29T05:38:48.083Z,1.50
2022-09-29T05:41:16.979Z,1.10
2022-09-29T05:43:44.902Z,1.60
2022-09-29T05:46:13.086Z,1.60
2022-09-29T05:48:42.957Z,1.10
2022-09-29T05:51:13.306Z,1.20
2022-09-29T05:53:41.916Z,1.40
2022-09-29T05:56:12.128Z,1.60
2022-09-29T05:58:40.953Z,1.60
2022-09-29T06:01:10.431Z,1.30
2022-09-29T06:03:39.308Z,1.60
2022-09-29T06:06:09.462Z,1.00
2022-09-29T06:08:37.846Z,0.80
2022-09-29T06:11:08.222Z,1.30
2022-09-29T06:13:38.972Z,1.40
2022-09-29T06:16:08.306Z,1.40
2022-09-29T06:18:37.039Z,1.20
2022-09-29T06:21:07.812Z,1.40
2022-09-29T06:23:36.325Z,1.50
2022-09-29T06:26:07.386Z,1.30
2022-09-29T06:28:35.466Z,1.40
2022-09-29T06:31:06.353Z,1.50
2022-09-29T06:33:36.116Z,1.50
2022-09-29T06:36:26.359Z,1.10
2022-09-29T06:38:54.662Z,0.90
2022-09-29T06:41:22.589Z,1.10
2022-09-29T06:43:50.560Z,1.40
2022-09-29T06:46:18.735Z,1.30
2022-09-29T06:48:46.809Z,1.20
2022-09-29T06:51:14.762Z,0.90
2022-09-29T06:53:43.175Z,1.30
2022-09-29T06:56:11.076Z,1.10
2022-09-29T06:58:39.851Z,0.70
2022-09-29T07:01:08.352Z,1.30
2022-09-29T07:03:36.442Z,0.90
2022-09-29T07:06:19.397Z,1.20
2022-09-29T07:08:48.308Z,1.10
2022-09-29T07:11:16.437Z,1.10
2022-09-29T07:13:44.576Z,1.10
2022-09-29T07:16:13.941Z,1.20
2022-09-29T07:18:46.402Z,1.10
2022-09-29T07:21:17.279Z,0.90
2022-09-29T07:23:46.355Z,1.40
2022-09-29T07:26:16.301Z,0.90
2022-09-29T07:28:45.190Z,1.30
2022-09-29T07:31:16.461Z,1.20
2022-09-29T07:33:45.734Z,0.80
2022-09-29T07:36:15.073Z,1.40
2022-09-29T07:38:45.504Z,1.10
2022-09-29T07:41:14.238Z,1.20
2022-09-29T07:43:42.344Z,1.20
2022-09-29T07:46:10.722Z,1.00
2022-09-29T07:48:39.346Z,0.80
2022-09-29T07:51:10.530Z,1.20
2022-09-29T07:53:39.161Z,1.20
2022-09-29T07:56:09.708Z,1.10
2022-09-29T07:58:38.593Z,1.10
2022-09-29T08:01:09.941Z,1.20
2022-09-29T08:03:38.803Z,1.10
2022-09-29T08:06:08.940Z,1.00
2022-09-29T08:08:37.817Z,1.30
2022-09-29T08:11:08.144Z,1.00
2022-09-29T08:13:37.212Z,1.30
2022-09-29T08:16:07.589Z,1.00
2022-09-29T08:18:36.637Z,1.00
2022-09-29T08:21:06.223Z,1.00
2022-09-29T08:23:37.783Z,0.80
2022-09-29T08:26:08.166Z,1.10
2022-09-29T08:28:37.950Z,1.00
2022-09-29T08:31:07.863Z,1.10
2022-09-29T08:33:36.983Z,0.90
2022-09-29T08:36:13.834Z,1.20
2022-09-29T08:38:42.795Z,1.00
2022-09-29T08:41:27.044Z,0.90
2022-09-29T08:44:00.613Z,1.00
2022-09-29T08:46:36.196Z,0.90
2022-09-29T08:49:11.756Z,0.80
2022-09-29T08:51:46.534Z,1.10
2022-09-29T08:54:36.330Z,1.10
2022-09-29T08:57:15.468Z,1.00
2022-09-29T08:59:44.009Z,0.90
2022-09-29T09:02:34.547Z,1.30
2022-09-29T09:05:24.520Z,1.30
2022-09-29T09:08:03.374Z,0.90
2022-09-29T09:10:43.858Z,0.90
2022-09-29T09:13:26.369Z,0.90
2022-09-29T09:16:14.553Z,1.50
2022-09-29T09:19:14.906Z,0.70
2022-09-29T09:21:44.667Z,1.00
2022-09-29T09:24:24.890Z,1.00
2022-09-29T09:26:53.761Z,0.90
2022-09-29T09:29:28.264Z,1.00
2022-09-29T09:32:01.400Z,0.80
2022-09-29T09:34:44.018Z,1.00
2022-09-29T09:37:17.466Z,0.90
2022-09-29T09:39:51.614Z,1.00
2022-09-29T09:42:24.739Z,1.00
2022-09-29T09:44:58.979Z,1.00
2022-09-29T09:47:29.185Z,0.90
2022-09-29T09:50:01.189Z,1.00
2022-09-29T09:52:36.975Z,1.30
2022-09-29T09:55:14.049Z,1.00
2022-09-29T09:58:03.827Z,0.70
2022-09-29T10:00:36.253Z,1.10
2022-09-29T10:03:07.101Z,1.00
2022-09-29T10:05:38.376Z,0.90
2022-09-29T10:08:09.881Z,0.80
2022-09-29T10:10:51.099Z,0.90
2022-09-29T10:13:27.705Z,0.80
2022-09-29T10:15:59.710Z,1.30
2022-09-29T10:18:32.541Z,0.70
2022-09-29T10:21:00.634Z,1.00
2022-09-29T10:23:31.560Z,0.80
2022-09-29T10:26:04.416Z,0.80
2022-09-29T10:28:43.840Z,0.80
2022-09-29T10:31:21.090Z,1.10
2022-09-29T10:33:54.905Z,0.90
2022-09-29T10:36:25.492Z,1.00
2022-09-29T10:38:54.224Z,0.70
2022-09-29T10:41:24.583Z,1.10
2022-09-29T10:43:53.276Z,0.90
2022-09-29T10:46:48.637Z,0.90
2022-09-29T10:49:18.596Z,0.80
2022-09-29T10:51:55.616Z,0.80
2022-09-29T10:54:25.663Z,0.90
2022-09-29T10:56:55.638Z,0.70
2022-09-29T10:59:25.119Z,0.80
2022-09-29T11:01:56.205Z,0.70
2022-09-29T11:04:28.391Z,0.90
2022-09-29T11:06:57.870Z,0.80
2022-09-29T11:09:36.391Z,0.90
2022-09-29T11:12:09.338Z,0.70
2022-09-29T11:14:42.364Z,1.00
2022-09-29T11:17:24.229Z,0.70
2022-09-29T11:19:54.429Z,0.70
2022-09-29T11:22:42.654Z,1.00
2022-09-29T11:25:38.754Z,0.70
2022-09-29T11:28:21.425Z,0.80
2022-09-29T11:31:11.363Z,0.80
2022-09-29T11:33:52.511Z,0.60
2022-09-29T11:36:29.461Z,0.70
2022-09-29T11:39:05.766Z,0.80
2022-09-29T11:41:48.493Z,0.80
2022-09-29T11:44:40.723Z,0.60
2022-09-29T11:47:22.309Z,1.30
2022-09-29T11:50:13.951Z,0.80
2022-09-29T11:52:56.639Z,0.60
2022-09-29T11:55:40.783Z,0.60
2022-09-29T11:58:23.300Z,0.50
2022-09-29T12:01:06.469Z,1.10
2022-09-29T12:03:45.326Z,0.70
2022-09-29T12:06:39.232Z,0.80
2022-09-29T12:09:24.147Z,0.70
2022-09-29T12:12:22.193Z,0.60
2022-09-29T12:15:04.046Z,0.80
2022-09-29T12:17:37.307Z,0.60
2022-09-29T12:20:16.399Z,0.70
2022-09-29T12:22:48.316Z,0.60
2022-09-29T12:25:20.158Z,0.70
2022-09-29T12:27:49.445Z,1.10
2022-09-29T12:30:25.509Z,0.70
2022-09-29T12:32:59.701Z,0.70
2022-09-29T12:35:35.947Z,0.60
2022-09-29T12:38:16.322Z,0.70
2022-09-29T12:40:49.234Z,0.60
2022-09-29T12:43:24.593Z,0.70
2022-09-29T12:46:01.206Z,0.80
2022-09-29T12:48:49.377Z,0.60
2022-09-29T12:51:26.071Z,0.50
2022-09-29T12:54:14.441Z,0.80
2022-09-29T12:56:48.678Z,0.60
2022-09-29T12:59:25.583Z,0.60
2022-09-29T13:01:57.216Z,0.60
2022-09-29T13:04:59.842Z,0.70
2022-09-29T13:08:01.779Z,0.80
2022-09-29T13:10:44.221Z,0.60
2022-09-29T13:13:44.362Z,0.70
2022-09-29T13:16:26.955Z,0.60
2022-09-29T13:19:52.373Z,0.60
2022-09-29T13:22:42.296Z,0.90
2022-09-29T13:25:22.176Z,0.70
2022-09-29T13:27:52.550Z,0.60
2022-09-29T13:30:25.044Z,1.00
2022-09-29T13:32:57.492Z,0.70
2022-09-29T13:35:27.003Z,0.70
2022-09-29T13:38:01.769Z,0.60
2022-09-29T13:40:31.960Z,0.70
2022-09-29T13:43:04.536Z,0.60
2022-09-29T13:45:44.305Z,0.60
2022-09-29T13:51:05.102Z,0.60
2022-09-29T13:53:37.985Z,0.60
2022-09-29T13:56:17.523Z,1.20
2022-09-29T13:59:01.970Z,0.80
2022-09-29T14:01:34.037Z,0.90
2022-09-29T14:04:37.476Z,0.60
2022-09-29T14:07:07.955Z,0.60
2022-09-29T14:09:40.223Z,0.70
2022-09-29T14:12:16.681Z,0.50
2022-09-29T14:14:52.126Z,0.90
2022-09-29T14:17:27.128Z,0.70
2022-09-29T14:20:02.684Z,0.60
2022-09-29T14:22:54.443Z,0.60
2022-09-29T14:25:53.878Z,0.70
2022-09-29T14:28:30.894Z,0.70
2022-09-29T14:31:02.208Z,0.60
2022-09-29T14:33:36.776Z,0.60
2022-09-29T14:36:10.331Z,0.60
2022-09-29T14:38:44.304Z,0.60
2022-09-29T14:41:31.435Z,0.60
2022-09-29T14:44:06.055Z,0.60
2022-09-29T14:47:47.601Z,0.70
2022-09-29T14:50:55.877Z,0.70
2022-09-29T14:53:44.364Z,0.40
2022-09-29T14:56:28.055Z,0.70
2022-09-29T14:59:10.351Z,1.20
2022-09-29T15:01:56.331Z,1.40
2022-09-29T15:04:25.311Z,1.30
2022-09-29T15:06:53.582Z,1.00
2022-09-29T15:09:23.477Z,1.20
2022-09-29T15:11:53.746Z,1.00
2022-09-29T15:14:26.730Z,0.80
2022-09-29T15:17:20.227Z,0.90
2022-09-29T15:20:00.377Z,0.90
2022-09-29T15:22:59.882Z,1.50
2022-09-29T15:25:31.457Z,1.40
2022-09-29T15:28:02.776Z,1.00
2022-09-29T15:30:32.591Z,1.00
2022-09-29T15:33:24.320Z,0.90
2022-09-29T15:35:56.870Z,1.20
2022-09-29T15:38:35.781Z,1.00
2022-09-29T15:41:14.332Z,0.90
2022-09-29T15:43:44.421Z,0.90
2022-09-29T15:46:18.874Z,0.90
2022-09-29T15:49:14.058Z,1.00
2022-09-29T15:51:43.995Z,1.10
2022-09-29T15:54:14.104Z,1.50
2022-09-29T15:57:00.333Z,1.10
2022-09-29T15:59:43.026Z,0.90
2022-09-29T16:02:19.862Z,1.30
2022-09-29T16:04:51.352Z,1.40
2022-09-29T16:07:27.879Z,1.30
2022-09-29T16:10:02.185Z,1.20
2022-09-29T16:12:35.789Z,1.10
2022-09-29T16:15:05.825Z,1.30
2022-09-29T16:17:34.156Z,1.30
2022-09-29T16:20:04.163Z,1.60
2022-09-29T16:22:32.759Z,1.40
2022-09-29T16:25:21.948Z,1.00
2022-09-29T16:27:55.418Z,1.10
2022-09-29T16:30:26.404Z,1.40
2022-09-29T16:33:14.255Z,1.30
2022-09-29T16:36:02.655Z,1.20
2022-09-29T16:38:35.397Z,1.10
2022-09-29T16:41:20.169Z,1.40
2022-09-29T16:43:49.374Z,1.50
2022-09-29T16:46:21.183Z,1.20
2022-09-29T16:48:50.426Z,1.30
2022-09-29T16:51:38.520Z,1.20
2022-09-29T16:54:13.780Z,2.00
2022-09-29T16:56:43.671Z,1.40
2022-09-29T16:59:14.527Z,1.50
2022-09-29T17:01:43.811Z,1.50
2022-09-29T17:04:12.891Z,1.30
2022-09-29T17:06:44.916Z,1.70
2022-09-29T17:09:18.869Z,1.50
2022-09-29T17:11:48.835Z,1.40
2022-09-29T17:14:18.404Z,1.30
2022-09-29T17:16:46.890Z,1.60
2022-09-29T17:19:15.263Z,1.90
2022-09-29T17:21:43.654Z,1.50
2022-09-29T17:24:11.832Z,1.20
2022-09-29T17:27:00.128Z,1.70
2022-09-29T17:29:28.396Z,1.50
2022-09-29T17:31:56.732Z,1.10
2022-09-29T17:34:28.215Z,1.40
2022-09-29T17:36:59.142Z,1.60
2022-09-29T17:39:27.511Z,1.40
2022-09-29T17:41:55.675Z,1.50
2022-09-29T17:44:24.383Z,1.50
2022-09-29T17:47:01.030Z,1.70
2022-09-29T17:49:40.728Z,1.60
2022-09-29T17:52:11.976Z,2.00
2022-09-29T17:54:40.024Z,1.60
2022-09-29T17:57:17.196Z,1.80
2022-09-29T17:59:45.221Z,1.90
2022-09-29T18:02:13.773Z,1.90
2022-09-29T18:04:44.890Z,1.60
2022-09-29T18:07:13.329Z,1.70
2022-09-29T18:09:42.454Z,1.70
2022-09-29T18:12:10.788Z,1.50
2022-09-29T18:14:39.277Z,1.60
2022-09-29T18:17:08.585Z,1.80
2022-09-29T18:19:39.643Z,2.50
2022-09-29T18:22:08.318Z,1.60
2022-09-29T18:24:36.701Z,1.50
2022-09-29T18:27:05.497Z,1.50
2022-09-29T18:29:33.890Z,2.30
2022-09-29T18:32:03.148Z,1.80
2022-09-29T18:34:33.475Z,1.80
2022-09-29T18:37:02.083Z,1.30
2022-09-29T18:39:30.214Z,1.80
2022-09-29T18:41:58.295Z,2.00
2022-09-29T18:44:32.790Z,1.50
2022-09-29T18:47:01.065Z,2.10
2022-09-29T18:49:29.043Z,1.90
2022-09-29T18:51:57.067Z,1.70
2022-09-29T18:54:25.510Z,1.40
2022-09-29T18:56:54.702Z,2.40
2022-09-29T18:59:23.306Z,1.70
2022-09-29T19:01:51.573Z,1.80
2022-09-29T19:04:19.983Z,2.10
2022-09-29T19:06:49.035Z,1.50
2022-09-29T19:09:17.314Z,1.50
2022-09-29T19:11:46.108Z,1.60
2022-09-29T19:14:14.334Z,1.40
2022-09-29T19:16:43.917Z,1.30
2022-09-29T19:19:11.970Z,1.40
2022-09-29T19:21:41.217Z,1.70
2022-09-29T19:24:09.327Z,1.90
2022-09-29T19:26:37.571Z,1.40
2022-09-29T19:29:06.157Z,1.40
2022-09-29T19:31:34.270Z,1.50
2022-09-29T19:34:02.618Z,1.40
2022-09-29T19:36:30.872Z,1.40
2022-09-29T19:38:59.078Z,1.50
2022-09-29T19:41:27.544Z,1.30
2022-09-29T19:43:55.748Z,1.90
2022-09-29T19:46:24.100Z,1.70
2022-09-29T19:48:52.412Z,1.50
2022-09-29T19:51:39.423Z,1.70
2022-09-29T19:54:14.174Z,1.30
2022-09-29T19:56:44.590Z,1.40
2022-09-29T19:59:14.281Z,1.80
2022-09-29T20:01:44.761Z,1.70
2022-09-29T20:04:14.028Z,1.60
2022-09-29T20:06:42.750Z,1.70
2022-09-29T20:09:11.651Z,1.90
2022-09-29T20:11:40.428Z,1.60
2022-09-29T20:14:11.424Z,1.60
2022-09-29T20:16:41.592Z,2.30
2022-09-29T20:19:13.339Z,1.80
2022-09-29T20:21:42.327Z,1.60
2022-09-29T20:24:13.707Z,2.20
2022-09-29T20:26:43.678Z,1.90
2022-09-29T20:29:12.101Z,1.70
2022-09-29T20:31:40.306Z,2.30
2022-09-29T20:34:10.062Z,1.60
2022-09-29T20:36:38.231Z,1.90
2022-09-29T20:39:06.357Z,2.10
2022-09-29T20:41:34.325Z,1.90
2022-09-29T20:44:03.150Z,1.90
2022-09-29T20:46:31.828Z,2.00
2022-09-29T20:49:02.548Z,1.90
2022-09-29T20:51:33.844Z,2.00
2022-09-29T20:54:04.337Z,1.90
2022-09-29T20:56:39.632Z,1.80
2022-09-29T20:59:09.737Z,1.90
2022-09-29T21:01:38.482Z,2.10
2022-09-29T21:04:08.244Z,2.10
2022-09-29T21:06:39.759Z,2.40
2022-09-29T21:09:11.239Z,2.20
2022-09-29T21:11:40.623Z,1.90
2022-09-29T21:14:10.228Z,2.40
2022-09-29T21:16:41.163Z,2.40
2022-09-29T21:19:09.823Z,1.80
2022-09-29T21:21:38.201Z,1.70
2022-09-29T21:24:06.946Z,2.00
2022-09-29T21:26:35.580Z,1.80
2022-09-29T21:29:04.338Z,1.90
2022-09-29T21:31:34.312Z,2.50
2022-09-29T21:34:04.164Z,2.30
2022-09-29T21:36:34.708Z,1.90
2022-09-29T21:39:07.577Z,2.00
2022-09-29T21:41:38.307Z,2.10
2022-09-29T21:44:10.697Z,2.30
2022-09-29T21:46:39.634Z,2.30
2022-09-29T21:49:09.809Z,2.70
2022-09-29T21:51:39.933Z,2.40
2022-09-29T21:54:11.481Z,2.10
2022-09-29T21:56:41.213Z,2.50
2022-09-29T21:59:10.641Z,2.50
2022-09-29T22:01:39.794Z,2.60
2022-09-29T22:04:09.981Z,2.20
2022-09-29T22:06:39.473Z,2.40
2022-09-29T22:09:08.687Z,2.10
2022-09-29T22:11:38.147Z,2.10
2022-09-29T22:14:06.775Z,2.00
2022-09-29T22:16:36.486Z,2.10
2022-09-29T22:19:22.442Z,2.30
2022-09-29T22:21:52.177Z,2.20
2022-09-29T22:24:20.434Z,2.70
2022-09-29T22:26:48.972Z,2.30
2022-09-29T22:29:16.922Z,2.10
2022-09-29T22:31:45.403Z,2.00
2022-09-29T22:34:13.465Z,2.60
2022-09-29T22:36:41.409Z,2.30
2022-09-29T22:39:10.044Z,2.00
2022-09-29T22:41:40.436Z,2.30
2022-09-29T22:44:08.890Z,2.20
2022-09-29T22:46:37.132Z,1.90
2022-09-29T22:49:05.156Z,2.40
2022-09-29T22:51:33.217Z,2.10
2022-09-29T22:54:01.558Z,2.20
2022-09-29T22:56:29.564Z,2.30
2022-09-29T22:59:01.222Z,2.50
2022-09-29T23:01:30.373Z,2.00
2022-09-29T23:03:58.809Z,2.70
2022-09-29T23:06:27.041Z,2.30
2022-09-29T23:08:55.164Z,2.40
2022-09-29T23:11:23.764Z,2.80
2022-09-29T23:13:52.567Z,2.10
2022-09-29T23:16:21.158Z,2.00
2022-09-29T23:18:53.332Z,2.40
2022-09-29T23:21:22.690Z,2.50
2022-09-29T23:23:55.213Z,2.30
2022-09-29T23:26:24.477Z,2.60
2022-09-29T23:28:54.512Z,2.10
2022-09-29T23:31:22.797Z,2.10
2022-09-29T23:33:53.860Z,2.50
2022-09-29T23:36:22.555Z,2.60
2022-09-29T23:39:08.989Z,2.50
2022-09-29T23:41:38.950Z,2.10
2022-09-29T23:44:07.850Z,2.10
2022-09-29T23:46:37.200Z,2.00
2022-09-29T23:49:08.436Z,2.40
2022-09-29T23:51:37.728Z,2.50
2022-09-29T23:54:07.181Z,2.10
2022-09-29T23:56:35.595Z,2.30
2022-09-29T23:59:04.636Z,2.20
